KSTJ/STJ METAR and TAF weather

Enter ICAO airport designator
Station Type Date Time Source
KSTJ METAR 2019/02/17 15:53 UTC NOAA

KSTJ 171553Z 29014KT 4SM BR FEW013 OVC038 M06/M07 A2986 RMK AO2 SLP122 T10561067


Station Type Date Time Source
KSTJ Decoded METAR 2019/02/17 15:53 UTC NOAA

ROSECRANS MEMORIAL AIRPORT, MO, United States (KSTJ) 39-46N 94-55W 247M
Feb 17, 2019 - 10:53 AM EST / 2019.02.17 1553 UTC
Wind: from the WNW (290 degrees) at 16 MPH (14 KT):0
Visibility: 4 mile(s):0
Sky conditions: overcast
Weather: mist
Temperature: 21.9 F (-5.6 C)
Windchill: 8 F (-13 C):1
Dew Point: 19.9 F (-6.7 C)
Relative Humidity: 91%
Pressure (altimeter): 29.86 in. Hg (1011 hPa)
ob: KSTJ 171553Z 29014KT 4SM BR FEW013 OVC038 M06/M07 A2986 RMK AO2 SLP122 T10561067
cycle: 16

Station Type Date Time Source
KSTJ TAF 2019/02/17 12:36 UTC NOAA

TAF KSTJ 171134Z 1712/1812 29007KT 6SM BR OVC008
FM171400 30007KT P6SM OVC010
FM171600 30010KT P6SM OVC025
FM172100 32011KT P6SM BKN035


Example: see airport list